Time;durP1;ratioP1;P1;durP2;ratioP2;P2;SDS_P1;SDS_P2;PMS_P1;PMS_P2;Temp;Humidity;BMP_temperature;BMP_pressure;BME280_temperature;BME280_humidity;BME280_pressure;Samples;Min_cycle;Max_cycle;Signal;HPM_P1;HPM_P2
2022/12/25 00:01:16;;;;;;;12.75;1.80;;;;;;;6.65;100.00;98713.84;5027629;28;20040;-84
2022/12/25 00:03:42;;;;;;;14.82;2.35;;;;;;;6.64;100.00;98712.19;5035871;28;20041;-84
2022/12/25 00:06:08;;;;;;;19.27;2.58;;;;;;;6.64;100.00;98706.94;5033397;28;20041;-84
2022/12/25 00:08:35;;;;;;;13.65;2.03;;;;;;;6.68;100.00;98718.78;5024835;28;20072;-85
2022/12/25 00:11:07;;;;;;;18.20;2.45;;;;;;;6.73;100.00;98712.19;5008311;28;20107;-84
2022/12/25 00:13:33;;;;;;;18.33;2.88;;;;;;;6.71;100.00;98707.13;5017342;28;20061;-84
2022/12/25 00:16:03;;;;;;;22.23;3.05;;;;;;;6.70;100.00;98708.09;5004005;28;20059;-85
2022/12/25 00:18:29;;;;;;;22.85;3.55;;;;;;;6.67;100.00;98693.47;5025373;28;20052;-84
2022/12/25 00:20:57;;;;;;;19.65;2.83;;;;;;;6.63;100.00;98693.97;5037635;28;20067;-84
2022/12/25 00:23:23;;;;;;;33.05;3.55;;;;;;;6.60;100.00;98695.13;5033529;28;20033;-84
2022/12/25 00:25:48;;;;;;;26.35;3.65;;;;;;;6.59;100.00;98706.63;5030252;28;20037;-84
2022/12/25 00:28:14;;;;;;;18.10;3.03;;;;;;;6.57;100.00;98706.78;5029776;28;20057;-84
2022/12/25 00:30:40;;;;;;;23.10;2.38;;;;;;;6.53;100.00;98707.25;5012162;28;20135;-83
2022/12/25 00:33:06;;;;;;;33.08;3.65;;;;;;;6.51;100.00;98706.59;5037630;28;20048;-84
2022/12/25 00:35:31;;;;;;;29.33;3.72;;;;;;;6.49;100.00;98713.81;5009950;28;20079;-84
2022/12/25 00:37:57;;;;;;;25.20;3.70;;;;;;;6.50;100.00;98710.22;5052309;28;20032;-84
2022/12/25 00:40:23;;;;;;;35.33;4.55;;;;;;;6.49;100.00;98709.38;5043478;28;20045;-84
2022/12/25 00:42:49;;;;;;;24.35;3.47;;;;;;;6.50;100.00;98700.50;5035458;28;20037;-83
2022/12/25 00:45:15;;;;;;;26.60;3.83;;;;;;;6.47;100.00;98703.47;5026267;28;20393;-84
2022/12/25 00:47:40;;;;;;;34.72;6.20;;;;;;;6.50;100.00;98694.47;5033059;28;20057;-84
2022/12/25 00:50:07;;;;;;;25.90;4.13;;;;;;;6.51;100.00;98703.97;5020483;28;20061;-83
2022/12/25 00:52:33;;;;;;;30.42;5.20;;;;;;;6.51;100.00;98699.56;5033999;28;20041;-84
2022/12/25 00:54:59;;;;;;;35.63;4.65;;;;;;;6.53;100.00;98696.75;5027944;28;20025;-84
2022/12/25 00:57:25;;;;;;;28.83;4.40;;;;;;;6.52;100.00;98693.31;5016499;28;20041;-84
2022/12/25 00:59:50;;;;;;;27.65;3.08;;;;;;;6.55;100.00;98695.63;5027726;28;20052;-84
2022/12/25 01:02:22;;;;;;;28.60;3.40;;;;;;;6.57;100.00;98690.19;5037855;28;20049;-83
2022/12/25 01:04:55;;;;;;;33.17;4.15;;;;;;;6.65;100.00;98694.63;5044433;28;20061;-83
2022/12/25 01:07:25;;;;;;;25.13;3.72;;;;;;;6.66;100.00;98693.66;5018186;28;20097;-84
2022/12/25 01:12:39;;;;;;;23.17;3.03;;;;;;;6.72;100.00;98703.50;5033798;28;20108;-84
2022/12/25 01:15:07;;;;;;;20.20;3.50;;;;;;;6.68;100.00;98705.66;5048222;28;20441;-84
2022/12/25 01:17:33;;;;;;;25.30;3.28;;;;;;;6.72;100.00;98693.00;5034587;28;20112;-84
2022/12/25 01:19:59;;;;;;;19.60;2.60;;;;;;;6.75;100.00;98689.25;5041885;28;20098;-83
2022/12/25 01:22:25;;;;;;;25.33;3.47;;;;;;;6.77;100.00;98690.72;5027436;28;20041;-84
2022/12/25 01:24:51;;;;;;;24.67;3.33;;;;;;;6.77;100.00;98703.03;5015792;28;20033;-84
2022/12/25 01:27:17;;;;;;;29.77;3.50;;;;;;;6.78;100.00;98697.63;5030558;28;20103;-84
2022/12/25 01:29:44;;;;;;;27.48;2.38;;;;;;;6.79;100.00;98696.63;5024022;28;20658;-84
2022/12/25 01:32:10;;;;;;;28.33;3.05;;;;;;;6.78;100.00;98692.38;5019151;28;20041;-84
2022/12/25 01:34:36;;;;;;;20.60;3.58;;;;;;;6.77;100.00;98698.59;5034852;28;20159;-84
2022/12/25 01:37:02;;;;;;;21.50;3.22;;;;;;;6.75;100.00;98692.69;5033976;28;20052;-84
2022/12/25 01:39:28;;;;;;;32.00;3.72;;;;;;;6.75;100.00;98692.69;5031128;28;20045;-84
2022/12/25 01:41:55;;;;;;;25.98;3.17;;;;;;;6.73;100.00;98685.94;5033695;28;20033;-84
2022/12/25 01:44:36;;;;;;;19.55;2.83;;;;;;;6.75;100.00;98689.25;5044967;28;20037;-84
2022/12/25 01:47:03;;;;;;;34.72;3.20;;;;;;;6.71;100.00;98694.00;5029992;28;20041;-84
2022/12/25 01:49:32;;;;;;;17.75;3.25;;;;;;;6.71;100.00;98696.63;5024941;28;20048;-84
2022/12/25 01:52:02;;;;;;;21.77;3.08;;;;;;;6.70;100.00;98690.53;5040669;28;20026;-84
2022/12/25 01:54:34;;;;;;;17.40;2.95;;;;;;;6.69;100.00;98680.19;5029900;28;20072;-84
2022/12/25 01:57:05;;;;;;;21.13;2.55;;;;;;;6.69;100.00;98677.56;5011184;28;20542;-84
2022/12/25 01:59:31;;;;;;;23.27;3.65;;;;;;;6.69;100.00;98688.06;5028494;28;20489;-84
2022/12/25 02:01:59;;;;;;;22.92;3.60;;;;;;;6.73;100.00;98685.94;5022203;28;20056;-83
2022/12/25 02:04:37;;;;;;;20.85;2.80;;;;;;;6.76;100.00;98685.63;5027771;28;20048;-84
2022/12/25 02:07:08;;;;;;;23.10;3.10;;;;;;;6.78;100.00;98679.25;5027128;28;20090;-84
2022/12/25 02:09:34;;;;;;;14.13;1.83;;;;;;;6.78;100.00;98673.16;5028414;28;20029;-84
2022/12/25 02:12:01;;;;;;;27.90;3.25;;;;;;;6.80;100.00;98679.06;5026630;28;20401;-84
2022/12/25 02:14:30;;;;;;;22.48;3.22;;;;;;;6.78;100.00;98683.66;5028481;28;20052;-84
2022/12/25 02:17:24;;;;;;;27.00;3.65;;;;;;;6.76;100.00;98683.81;5038827;28;20117;-83
2022/12/25 02:20:22;;;;;;;16.27;2.10;;;;;;;6.75;100.00;98694.50;5024909;28;20032;-84
2022/12/25 02:23:01;;;;;;;23.90;2.67;;;;;;;6.70;100.00;98685.28;5010551;28;20056;-84
2022/12/25 02:25:30;;;;;;;27.20;2.90;;;;;;;6.70;100.00;98687.09;5027655;28;20116;-84
2022/12/25 02:28:14;;;;;;;26.33;3.42;;;;;;;6.69;100.00;98690.69;5008332;28;20053;-84
2022/12/25 02:30:48;;;;;;;21.92;2.75;;;;;;;6.70;100.00;98689.72;5011999;28;20398;-84
2022/12/25 02:36:27;;;;;;;22.42;4.15;;;;;;;6.66;100.00;98691.84;5021168;28;20049;-84
2022/12/25 02:39:59;;;;;;;18.95;2.70;;;;;;;6.69;100.00;98686.28;5023307;28;20550;-84
2022/12/25 02:41:57;;;;;;;24.08;3.20;;;;;;;6.68;100.00;98695.16;5013196;28;20100;-84
2022/12/25 03:07:09;;;;;;;31.60;3.63;;;;;;;6.79;100.00;98714.19;5015947;28;20033;-83
2022/12/25 03:13:00;;;;;;;23.55;2.95;;;;;;;6.80;100.00;98703.50;5019815;28;20084;-83
2022/12/25 03:18:15;;;;;;;20.05;3.15;;;;;;;6.88;100.00;98705.31;5025903;28;20135;-84
2022/12/25 03:29:01;;;;;;;23.60;3.25;;;;;;;6.81;100.00;98684.16;5044798;28;20573;-84
2022/12/25 03:31:45;;;;;;;28.92;3.78;;;;;;;6.82;100.00;98680.53;5026762;28;20065;-83
2022/12/25 04:36:11;;;;;;;20.02;2.25;;;;;;;7.03;100.00;98631.94;5004448;28;20128;-84
2022/12/25 04:38:38;;;;;;;21.65;3.15;;;;;;;7.09;100.00;98629.66;5022965;28;20486;-84
2022/12/25 04:41:04;;;;;;;24.83;3.88;;;;;;;7.15;100.00;98644.75;5028690;28;20498;-84
2022/12/25 04:43:30;;;;;;;20.10;3.08;;;;;;;7.16;100.00;98641.13;5028254;28;20057;-80
2022/12/25 04:45:58;;;;;;;27.40;2.88;;;;;;;7.21;100.00;98638.81;5045793;28;20038;-84
2022/12/25 04:48:25;;;;;;;26.20;3.40;;;;;;;7.23;100.00;98636.81;5021679;28;20033;-84
2022/12/25 04:50:51;;;;;;;15.73;1.98;;;;;;;7.25;100.00;98634.84;5027599;28;20045;-84
2022/12/25 04:53:18;;;;;;;26.70;3.03;;;;;;;7.31;100.00;98638.63;5034559;28;20140;-84
2022/12/25 04:55:43;;;;;;;25.50;3.88;;;;;;;7.34;100.00;98640.94;5029283;28;20107;-80
2022/12/25 04:58:09;;;;;;;21.23;2.92;;;;;;;7.38;100.00;98646.66;5024593;28;20017;-80
2022/12/25 05:00:36;;;;;;;23.73;2.50;;;;;;;7.39;100.00;98643.84;5028104;28;20029;-83
2022/12/25 05:03:02;;;;;;;23.35;3.88;;;;;;;7.40;100.00;98647.31;5025081;28;20045;-84
2022/12/25 05:05:28;;;;;;;22.10;3.00;;;;;;;7.41;100.00;98647.13;5027240;28;20041;-79
2022/12/25 05:07:55;;;;;;;23.65;3.70;;;;;;;7.41;100.00;98646.31;5028776;28;20033;-80
2022/12/25 05:10:21;;;;;;;19.27;2.65;;;;;;;7.38;100.00;98642.22;5030357;28;20065;-84
2022/12/25 05:12:47;;;;;;;28.88;2.92;;;;;;;7.39;100.00;98641.22;5031241;28;20107;-84
2022/12/25 05:15:12;;;;;;;26.38;3.20;;;;;;;7.42;100.00;98637.47;5021376;28;20505;-84
2022/12/25 05:17:38;;;;;;;26.23;2.90;;;;;;;7.42;100.00;98642.72;5028677;28;20038;-84
2022/12/25 05:20:05;;;;;;;23.88;2.83;;;;;;;7.45;100.00;98637.13;5009037;28;20073;-84
2022/12/25 05:22:31;;;;;;;26.80;3.63;;;;;;;7.44;100.00;98638.91;5025997;28;20079;-84
2022/12/25 05:24:57;;;;;;;23.05;3.17;;;;;;;7.47;100.00;98639.56;5032181;28;20033;-80
2022/12/25 05:27:22;;;;;;;21.67;2.78;;;;;;;7.49;100.00;98645.47;5024428;28;20040;-80
2022/12/25 05:29:48;;;;;;;25.10;3.80;;;;;;;7.50;100.00;98645.28;5020210;28;20040;-80
2022/12/25 05:32:14;;;;;;;23.73;2.97;;;;;;;7.51;100.00;98631.19;5030161;28;20041;-80
2022/12/25 05:34:39;;;;;;;26.15;3.58;;;;;;;7.51;100.00;98631.19;5031219;28;20095;-84
2022/12/25 05:37:05;;;;;;;24.25;2.65;;;;;;;7.52;100.00;98631.97;5027909;28;20068;-84
2022/12/25 05:39:31;;;;;;;29.85;3.58;;;;;;;7.51;100.00;98636.44;5028519;28;20037;-84
2022/12/25 05:41:57;;;;;;;26.23;3.83;;;;;;;7.52;100.00;98638.06;5045587;28;20436;-84
2022/12/25 05:44:23;;;;;;;36.83;4.53;;;;;;;7.55;100.00;98640.34;5014428;28;20074;-84
2022/12/25 05:46:48;;;;;;;27.52;3.67;;;;;;;7.51;100.00;98649.59;5028896;28;20048;-84
2022/12/25 05:49:14;;;;;;;28.45;3.33;;;;;;;7.50;100.00;98650.56;5014382;28;20034;-84
2022/12/25 05:51:40;;;;;;;22.00;2.75;;;;;;;7.48;100.00;98652.56;4996565;28;20045;-84
2022/12/25 05:54:06;;;;;;;28.15;3.08;;;;;;;7.43;100.00;98652.22;5025293;28;20090;-84
2022/12/25 05:56:31;;;;;;;29.73;3.17;;;;;;;7.37;100.00;98645.84;5029346;28;20428;-84
2022/12/25 05:58:57;;;;;;;20.05;3.13;;;;;;;7.37;100.00;98647.66;5043095;28;20076;-83
2022/12/25 06:01:26;;;;;;;21.67;3.40;;;;;;;7.39;100.00;98657.00;5027099;28;20083;-84
2022/12/25 06:03:52;;;;;;;26.88;3.38;;;;;;;7.35;100.00;98653.06;5036158;28;20053;-83
2022/12/25 06:06:18;;;;;;;29.25;3.40;;;;;;;7.35;100.00;98650.44;5030536;28;20397;-84
2022/12/25 06:08:44;;;;;;;27.33;4.38;;;;;;;7.32;100.00;98654.25;5030067;28;20044;-83
2022/12/25 06:11:12;;;;;;;24.77;3.42;;;;;;;7.34;100.00;98656.69;5030215;28;20482;-84
2022/12/25 06:13:37;;;;;;;23.63;3.90;;;;;;;7.29;100.00;98646.66;5019574;28;20066;-84
2022/12/25 06:16:05;;;;;;;34.78;3.67;;;;;;;7.27;100.00;98651.28;5017894;28;20457;-84
2022/12/25 06:18:35;;;;;;;27.80;4.72;;;;;;;7.26;100.00;98656.72;5040940;28;20029;-83
2022/12/25 06:21:05;;;;;;;23.48;3.00;;;;;;;7.25;100.00;98649.78;5028649;28;20068;-84
2022/12/25 06:23:31;;;;;;;23.90;2.97;;;;;;;7.21;100.00;98654.59;5012493;28;20045;-84
2022/12/25 06:25:57;;;;;;;27.02;3.92;;;;;;;7.18;100.00;98662.81;5024803;28;20033;-84
2022/12/25 06:28:23;;;;;;;30.13;3.40;;;;;;;7.18;100.00;98655.72;5037918;28;20054;-83
2022/12/25 06:30:48;;;;;;;24.88;4.00;;;;;;;7.19;100.00;98667.06;5017027;28;20061;-84
2022/12/25 06:33:14;;;;;;;40.10;12.88;;;;;;;7.20;100.00;98666.88;5025635;28;20049;-84
2022/12/25 06:35:40;;;;;;;25.02;4.25;;;;;;;7.23;100.00;98670.19;5024479;28;20049;-84
2022/12/25 06:38:06;;;;;;;30.70;5.40;;;;;;;7.24;100.00;98671.81;5011293;28;20029;-84
2022/12/25 06:40:32;;;;;;;34.40;6.90;;;;;;;7.25;100.00;98674.28;5012055;28;20034;-84
2022/12/25 06:42:58;;;;;;;28.77;4.90;;;;;;;7.26;100.00;98667.22;5008622;28;20037;-83
2022/12/25 06:45:24;;;;;;;31.33;5.13;;;;;;;7.25;100.00;98660.31;5033090;28;20038;-84
2022/12/25 06:47:49;;;;;;;27.73;3.22;;;;;;;7.25;100.00;98655.88;5023043;28;20041;-84
2022/12/25 06:50:15;;;;;;;21.88;3.50;;;;;;;7.26;100.00;98652.25;5030696;28;20026;-83
2022/12/25 06:52:41;;;;;;;29.55;3.40;;;;;;;7.25;100.00;98648.00;5022303;28;20444;-83
2022/12/25 06:55:07;;;;;;;24.52;3.08;;;;;;;7.26;100.00;98648.81;5014493;28;20040;-84
2022/12/25 06:57:33;;;;;;;28.13;3.05;;;;;;;7.24;100.00;98637.66;5027532;28;20088;-84
2022/12/25 06:59:59;;;;;;;30.13;3.55;;;;;;;7.24;100.00;98635.84;5025074;28;20350;-84
2022/12/25 07:02:25;;;;;;;27.60;3.75;;;;;;;7.24;100.00;98649.00;5034185;28;20421;-84
2022/12/25 07:04:51;;;;;;;28.10;3.42;;;;;;;7.27;100.00;98656.53;5010853;28;20387;-84
2022/12/25 07:07:17;;;;;;;19.33;2.85;;;;;;;7.26;100.00;98646.19;5042133;28;20120;-84
2022/12/25 07:09:43;;;;;;;30.92;3.55;;;;;;;7.30;100.00;98644.88;5028540;28;20581;-84
2022/12/25 07:12:12;;;;;;;39.90;5.13;;;;;;;7.34;100.00;98646.19;4997151;28;20053;-83
2022/12/25 07:14:38;;;;;;;28.38;4.03;;;;;;;7.34;100.00;98645.34;5019280;28;20053;-84
2022/12/25 07:17:04;;;;;;;37.60;5.45;;;;;;;7.37;100.00;98639.75;5026472;28;20037;-83
2022/12/25 07:19:29;;;;;;;31.52;4.20;;;;;;;7.39;100.00;98640.41;5028644;28;20163;-83
2022/12/25 07:21:55;;;;;;;30.88;4.13;;;;;;;7.38;100.00;98636.13;5024944;28;20108;-84
2022/12/25 07:24:22;;;;;;;23.58;4.32;;;;;;;7.40;100.00;98637.63;5027971;28;20739;-84
2022/12/25 07:26:49;;;;;;;25.92;3.65;;;;;;;7.39;100.00;98635.97;5030156;28;20029;-84
2022/12/25 07:29:16;;;;;;;30.70;3.63;;;;;;;7.43;100.00;98644.34;5030992;28;20033;-84
2022/12/25 07:31:41;;;;;;;17.08;2.65;;;;;;;7.41;100.00;98644.50;5019595;28;20144;-84
2022/12/25 07:34:08;;;;;;;20.77;3.00;;;;;;;7.39;100.00;98643.84;5028554;28;20041;-84
2022/12/25 07:36:33;;;;;;;40.20;4.53;;;;;;;7.39;100.00;98650.94;5013881;28;20038;-84
2022/12/25 07:38:59;;;;;;;17.45;2.53;;;;;;;7.42;100.00;98658.47;5012844;28;20083;-84
2022/12/25 07:41:25;;;;;;;39.10;3.40;;;;;;;7.43;100.00;98668.84;5027785;28;20037;-84
2022/12/25 07:44:01;;;;;;;24.65;3.63;;;;;;;7.47;100.00;98668.50;5039520;28;20552;-84
2022/12/25 07:46:27;;;;;;;28.98;3.65;;;;;;;7.50;100.00;98665.53;5011521;28;20037;-83
2022/12/25 07:48:54;;;;;;;26.77;4.03;;;;;;;7.57;100.00;98669.09;5011787;28;20489;-84
2022/12/25 07:51:20;;;;;;;26.52;2.92;;;;;;;7.59;100.00;98671.56;5029218;28;20363;-84
2022/12/25 07:53:46;;;;;;;25.98;3.97;;;;;;;7.60;100.00;98678.50;5013324;28;20056;-83
2022/12/25 07:56:17;;;;;;;27.60;5.68;;;;;;;7.62;100.00;98671.22;5028678;28;20124;-84
2022/12/25 07:58:43;;;;;;;19.00;4.60;;;;;;;7.61;100.00;98672.22;5040801;28;20474;-84
2022/12/25 08:01:22;;;;;;;25.08;6.03;;;;;;;7.63;100.00;98673.69;5015110;28;20037;-83
2022/12/25 08:03:49;;;;;;;34.03;14.88;;;;;;;7.63;100.00;98684.22;5013639;28;20046;-84
2022/12/25 08:06:15;;;;;;;22.73;5.75;;;;;;;7.64;100.00;98685.88;5017334;28;20026;-84
2022/12/25 08:08:41;;;;;;;16.23;5.45;;;;;;;7.65;100.00;98692.75;5005996;28;20508;-84
2022/12/25 08:11:08;;;;;;;15.32;3.30;;;;;;;7.65;100.00;98679.59;5005688;28;20025;-84
2022/12/25 08:13:35;;;;;;;19.08;4.75;;;;;;;7.63;100.00;98688.66;5010214;28;20030;-84
2022/12/25 08:16:03;;;;;;;18.45;2.53;;;;;;;7.64;100.00;98688.50;5043170;28;20053;-84
2022/12/25 08:18:30;;;;;;;21.80;3.63;;;;;;;7.62;100.00;98687.84;5024751;28;20482;-84
2022/12/25 08:21:01;;;;;;;23.48;2.42;;;;;;;7.61;100.00;98682.75;5029714;28;20033;-84
2022/12/25 08:23:27;;;;;;;25.45;3.90;;;;;;;7.60;100.00;98689.81;5009384;28;20406;-84
2022/12/25 08:25:52;;;;;;;24.08;4.22;;;;;;;7.60;100.00;98675.84;5013815;28;20041;-84
2022/12/25 08:28:18;;;;;;;23.98;6.75;;;;;;;7.57;100.00;98672.56;5015385;28;20030;-84
2022/12/25 08:30:44;;;;;;;31.85;9.68;;;;;;;7.56;100.00;98681.44;5011596;28;20037;-84
2022/12/25 08:33:10;;;;;;;31.88;5.93;;;;;;;7.49;100.00;98685.72;5026332;28;20037;-84
2022/12/25 08:35:35;;;;;;;35.80;7.30;;;;;;;7.45;100.00;98687.88;5039753;28;20034;-84
2022/12/25 08:38:01;;;;;;;30.23;4.40;;;;;;;7.40;100.00;98694.63;5018535;28;20029;-84
2022/12/25 08:40:31;;;;;;;37.35;14.38;;;;;;;7.35;100.00;98695.13;5019033;28;20030;-84
2022/12/25 08:42:57;;;;;;;37.90;11.77;;;;;;;7.30;100.00;98703.50;5030994;28;20673;-84
2022/12/25 08:45:22;;;;;;;27.92;9.43;;;;;;;7.26;100.00;98699.56;5029898;28;20041;-84
2022/12/25 08:47:54;;;;;;;30.35;6.30;;;;;;;7.24;100.00;98701.56;5010018;28;20045;-84
2022/12/25 08:50:23;;;;;;;33.25;5.00;;;;;;;7.20;100.00;98701.06;5020285;28;20463;-84
2022/12/25 08:52:49;;;;;;;30.20;5.07;;;;;;;7.15;100.00;98702.53;5023419;28;20044;-85
2022/12/25 08:55:15;;;;;;;28.38;3.67;;;;;;;7.12;100.00;98705.50;5027325;28;20033;-85
2022/12/25 08:57:41;;;;;;;29.17;4.97;;;;;;;7.13;100.00;98704.50;5027351;28;20025;-83
2022/12/25 09:00:10;;;;;;;27.70;4.30;;;;;;;7.13;100.00;98712.38;5021083;28;20108;-84
2022/12/25 09:02:41;;;;;;;24.98;5.13;;;;;;;7.08;100.00;98710.25;5022097;28;20414;-85
2022/12/25 09:05:09;;;;;;;34.50;8.35;;;;;;;7.06;100.00;98715.69;5014349;28;20025;-85
2022/12/25 09:07:35;;;;;;;31.10;4.28;;;;;;;7.06;100.00;98712.22;5011069;28;20037;-85
2022/12/25 09:10:01;;;;;;;28.98;3.28;;;;;;;7.02;100.00;98714.38;5013765;28;20092;-85
2022/12/25 09:12:27;;;;;;;19.83;2.88;;;;;;;6.98;100.00;98707.78;5012911;28;20117;-84
2022/12/25 09:14:53;;;;;;;19.90;2.78;;;;;;;6.94;100.00;98712.53;5027808;28;20046;-84
2022/12/25 09:17:18;;;;;;;19.67;2.55;;;;;;;6.91;100.00;98709.44;5016419;28;20033;-86
2022/12/25 09:19:44;;;;;;;18.52;2.53;;;;;;;6.89;100.00;98716.66;5015348;28;20393;-84
2022/12/25 09:22:10;;;;;;;21.83;2.20;;;;;;;6.87;100.00;98716.81;5036483;28;20619;-85
2022/12/25 09:24:38;;;;;;;13.82;2.03;;;;;;;6.86;100.00;98720.44;4994175;28;20060;-85
2022/12/25 09:27:04;;;;;;;7.30;1.17;;;;;;;6.86;100.00;98728.31;5026023;28;20071;-84
2022/12/25 09:29:29;;;;;;;12.77;1.55;;;;;;;6.85;100.00;98728.47;5021442;28;20033;-85
2022/12/25 09:31:55;;;;;;;13.88;1.45;;;;;;;6.83;100.00;98731.28;5021369;28;20037;-85
2022/12/25 09:34:21;;;;;;;12.18;2.10;;;;;;;6.82;100.00;98730.44;5019848;28;20049;-84
2022/12/25 09:36:47;;;;;;;8.80;1.25;;;;;;;6.84;100.00;98730.28;5019982;28;20029;-84
2022/12/25 09:39:12;;;;;;;13.18;1.77;;;;;;;6.85;100.00;98734.53;5020079;28;20116;-84
2022/12/25 09:42:10;;;;;;;9.00;1.50;;;;;;;6.86;100.00;98732.75;5008702;28;20673;-84
2022/12/25 09:44:41;;;;;;;9.07;1.15;;;;;;;6.88;100.00;98742.09;5023748;28;20076;-83
2022/12/25 09:47:13;;;;;;;9.27;1.42;;;;;;;6.90;100.00;98744.56;5020793;28;20121;-84
2022/12/25 09:50:04;;;;;;;12.23;1.73;;;;;;;6.88;100.00;98738.66;5015501;28;20065;-84
2022/12/25 09:52:56;;;;;;;15.38;10.60;;;;;;;6.90;100.00;98742.75;5025384;28;20051;-84
2022/12/25 09:55:28;;;;;;;10.75;5.72;;;;;;;6.90;100.00;98744.56;5006526;28;20112;-84
2022/12/25 09:57:57;;;;;;;5.90;2.45;;;;;;;6.90;100.00;98742.75;5031409;28;20036;-84
2022/12/25 10:00:30;;;;;;;9.93;2.65;;;;;;;6.90;100.00;98739.28;5004243;28;20049;-84
2022/12/25 10:02:56;;;;;;;7.95;1.88;;;;;;;6.87;100.00;98742.25;5042025;28;20050;-84
2022/12/25 10:05:46;;;;;;;10.63;1.48;;;;;;;6.91;100.00;98740.97;5036985;28;20516;-84
2022/12/25 10:08:37;;;;;;;8.25;2.20;;;;;;;6.97;100.00;98742.94;5019090;28;20643;-85
2022/12/25 10:11:20;;;;;;;6.93;1.98;;;;;;;7.06;100.00;98736.69;5015693;28;20038;-84
2022/12/25 10:14:05;;;;;;;3.88;0.57;;;;;;;7.18;100.00;98731.13;5017701;28;20037;-83
2022/12/25 10:16:48;;;;;;;2.78;0.70;;;;;;;7.26;100.00;98736.34;5037637;28;20030;-84
2022/12/25 10:19:57;;;;;;;5.72;0.82;;;;;;;7.35;100.00;98733.72;5016015;28;20033;-84
2022/12/25 10:22:33;;;;;;;9.68;1.30;;;;;;;7.41;100.00;98741.78;5024619;28;20033;-84
2022/12/25 10:24:59;;;;;;;;;;;;;;;7.40;100.00;98736.69;5027152;28;20091;-83
2022/12/25 10:27:46;;;;;;;;;;;;;;;7.45;100.00;98745.69;5039908;28;19917;-84
2022/12/25 10:30:19;;;;;;;5.67;1.20;;;;;;;7.56;100.00;98755.03;5024863;28;19921;-84
2022/12/25 10:32:45;;;;;;;6.30;1.20;;;;;;;7.57;100.00;98740.09;5029004;28;20516;-85
2022/12/25 10:35:14;;;;;;;10.02;3.30;;;;;;;7.64;100.00;98743.72;5033744;28;20058;-84
2022/12/25 10:37:42;;;;;;;15.88;2.05;;;;;;;7.69;100.00;98744.00;5011978;28;20048;-83
2022/12/25 10:40:35;;;;;;;11.90;2.67;;;;;;;7.72;100.00;98735.00;5008884;28;20514;-85
2022/12/25 10:43:12;;;;;;;12.45;2.17;;;;;;;7.77;100.00;98745.00;5032189;28;20035;-85
2022/12/25 10:45:46;;;;;;;11.48;1.73;;;;;;;7.79;100.00;98749.09;5024025;28;20076;-84
2022/12/25 10:48:28;;;;;;;10.82;2.35;;;;;;;7.84;100.00;98738.06;5027057;28;20038;-85
2022/12/25 10:50:55;;;;;;;13.70;1.92;;;;;;;7.89;100.00;98741.03;5024029;28;20041;-84
2022/12/25 10:53:26;;;;;;;17.38;1.92;;;;;;;7.96;100.00;98738.53;5026974;28;20033;-85
2022/12/25 10:56:04;;;;;;;19.73;2.38;;;;;;;8.00;100.00;98745.09;5022411;28;21730;-84
2022/12/25 10:58:31;;;;;;;13.32;2.25;;;;;;;8.09;100.00;98737.19;5037653;28;20126;-84
2022/12/25 11:01:01;;;;;;;21.17;2.03;;;;;;;8.15;100.00;98750.47;5006563;28;20065;-84
2022/12/25 11:03:33;;;;;;;14.80;2.08;;;;;;;8.17;100.00;98748.47;5019201;28;20060;-84
2022/12/25 11:06:03;;;;;;;18.80;2.45;;;;;;;8.17;100.00;98747.69;5020046;28;20040;-85
2022/12/25 11:08:31;;;;;;;25.02;2.90;;;;;;;8.24;100.00;98751.25;5010217;28;21551;-86
2022/12/25 11:11:05;;;;;;;17.35;2.70;;;;;;;8.28;100.00;98749.09;5003863;28;20542;-86
2022/12/25 11:13:38;;;;;;;20.95;2.85;;;;;;;8.27;100.00;98743.00;5025889;28;20047;-85
2022/12/25 11:16:12;;;;;;;17.35;2.38;;;;;;;8.37;100.00;98749.88;5003473;28;20092;-84
2022/12/25 11:18:50;;;;;;;23.23;2.58;;;;;;;8.44;100.00;98729.78;5030860;28;20483;-82
2022/12/25 11:21:27;;;;;;;13.77;2.13;;;;;;;8.49;100.00;98735.31;5031699;28;20137;-81
2022/12/25 11:24:04;;;;;;;17.73;1.77;;;;;;;8.50;100.00;98725.63;5028226;28;20036;-84
2022/12/25 11:26:48;;;;;;;14.88;2.53;;;;;;;8.49;100.00;98731.91;5029737;28;20037;-85
2022/12/25 11:29:40;;;;;;;17.02;2.05;;;;;;;8.56;100.00;98730.22;5016498;28;20406;-85
2022/12/25 11:32:15;;;;;;;14.25;2.17;;;;;;;8.63;100.00;98733.78;5017957;28;20128;-84
2022/12/25 11:34:44;;;;;;;22.90;3.05;;;;;;;8.70;100.00;98718.13;5024992;28;20044;-85
2022/12/25 11:37:16;;;;;;;19.20;2.83;;;;;;;8.79;100.00;98722.34;5016910;28;20046;-85
2022/12/25 11:39:42;;;;;;;16.08;2.25;;;;;;;8.88;100.00;98719.66;5028418;28;20052;-85
2022/12/25 11:42:10;;;;;;;17.58;2.67;;;;;;;8.91;100.00;98711.38;5029360;28;20593;-84
2022/12/25 11:45:06;;;;;;;26.20;6.47;;;;;;;9.03;100.00;98706.53;5029415;28;20045;-85
2022/12/25 11:47:50;;;;;;;23.10;4.18;;;;;;;9.06;100.00;98706.97;4999422;28;20041;-85
2022/12/25 11:50:28;;;;;;;13.55;2.33;;;;;;;9.06;100.00;98691.16;5023151;28;20497;-85
2022/12/25 11:52:54;;;;;;;17.25;1.88;;;;;;;9.09;100.00;98683.91;5029946;28;20033;-85
2022/12/25 11:55:20;;;;;;;23.90;2.63;;;;;;;9.11;100.00;98685.34;5027416;28;20034;-85
2022/12/25 11:57:52;;;;;;;15.98;2.75;;;;;;;9.14;100.00;98685.00;5019660;28;20041;-84
2022/12/25 12:00:18;;;;;;;16.05;2.20;;;;;;;9.14;100.00;98692.91;5010364;28;20048;-85
2022/12/25 12:03:08;;;;;;;19.38;3.67;;;;;;;9.19;100.00;98687.09;5025989;28;20084;-85
2022/12/25 12:05:42;;;;;;;12.90;2.17;;;;;;;9.18;100.00;98680.19;5009956;28;20041;-82
2022/12/25 12:08:10;;;;;;;15.70;2.97;;;;;;;9.22;100.00;98680.66;5027687;28;20037;-84
2022/12/25 12:10:48;;;;;;;24.33;3.20;;;;;;;9.25;100.00;98683.75;5020867;28;20038;-85
2022/12/25 12:13:26;;;;;;;19.15;5.20;;;;;;;9.30;100.00;98688.50;5036716;28;20034;-85
2022/12/25 12:15:52;;;;;;;28.30;6.93;;;;;;;9.34;100.00;98683.69;5022271;28;20065;-86
2022/12/25 12:18:18;;;;;;;38.67;17.38;;;;;;;9.42;100.00;98683.59;5017250;28;20061;-85
2022/12/25 12:20:55;;;;;;;17.15;5.63;;;;;;;9.44;100.00;98681.59;5008063;28;20045;-85
2022/12/25 12:23:21;;;;;;;17.58;4.50;;;;;;;9.49;100.00;98687.13;4995504;28;20038;-85
2022/12/25 12:25:48;;;;;;;26.40;5.18;;;;;;;9.54;100.00;98689.22;5025914;28;20033;-86
2022/12/25 12:31:39;;;;;;;;;;;;;;;9.43;100.00;98678.16;5003675;28;21667;-85
2022/12/25 12:34:41;;;;;;;18.38;5.50;;;;;;;9.55;100.00;98675.91;4995909;28;20306;-85
2022/12/25 12:37:40;;;;;;;27.73;7.55;;;;;;;9.63;100.00;98680.25;5025916;28;20033;-85
2022/12/25 12:40:44;;;;;;;21.40;4.45;;;;;;;9.65;100.00;98680.88;4993077;28;20103;-81
2022/12/25 12:43:42;;;;;;;30.50;11.70;;;;;;;9.53;100.00;98672.59;5013866;28;20041;-81
2022/12/25 12:46:17;;;;;;;;;;;;;;;9.41;100.00;98668.78;5007674;28;20141;-85
2022/12/25 12:48:49;;;;;;;24.45;8.27;;;;;;;9.52;100.00;98676.22;5026065;28;20008;-85
2022/12/25 12:51:55;;;;;;;35.45;16.50;;;;;;;9.64;100.00;98679.25;4991414;28;20084;-86
2022/12/25 12:54:23;;;;;;;23.15;8.00;;;;;;;9.68;100.00;98680.50;5002752;28;20475;-85
2022/12/25 12:57:05;;;;;;;24.25;9.02;;;;;;;9.79;100.00;98678.44;5026645;28;20115;-85
2022/12/25 12:59:45;;;;;;;26.75;14.80;;;;;;;9.81;100.00;98681.69;5006318;28;20038;-85
2022/12/25 13:02:55;;;;;;;28.50;8.73;;;;;;;9.88;100.00;98673.84;4992344;28;20092;-85
2022/12/25 13:05:44;;;;;;;16.95;3.42;;;;;;;9.90;100.00;98666.59;5022507;28;20072;-85
2022/12/25 13:08:50;;;;;;;18.17;2.90;;;;;;;9.90;100.00;98666.59;5023850;28;20041;-85
2022/12/25 13:11:22;;;;;;;22.20;3.22;;;;;;;9.92;100.00;98667.22;5024527;28;20037;-85
2022/12/25 13:13:53;;;;;;;16.83;2.80;;;;;;;9.94;100.00;98659.94;5008975;28;20034;-85
2022/12/25 13:16:21;;;;;;;15.23;3.22;;;;;;;9.89;100.00;98654.41;5025706;28;20053;-85
2022/12/25 13:18:51;;;;;;;18.48;2.42;;;;;;;9.88;100.00;98653.56;5009734;28;20053;-81
2022/12/25 13:21:22;;;;;;;15.20;3.67;;;;;;;9.87;100.00;98651.13;5007619;28;20037;-81
2022/12/25 13:23:55;;;;;;;18.98;3.20;;;;;;;9.86;100.00;98649.50;5005514;28;20053;-85
2022/12/25 13:26:20;;;;;;;14.52;3.05;;;;;;;9.88;100.00;98644.81;5005460;28;20041;-85
2022/12/25 13:28:46;;;;;;;17.02;3.00;;;;;;;9.89;100.00;98649.91;5023016;28;20565;-85
2022/12/25 13:31:12;;;;;;;16.13;3.58;;;;;;;9.84;100.00;98649.69;5024842;28;20367;-86